sensor_id;sensor_type;location;lat;lon;timestamp;pressure;altitude;pressure_sealevel;temperature;humidity
17781;BME280;8498;52.516;13.790;2023-05-09T00:05:11;101961.66;;;10.57;64.14
17781;BME280;8498;52.516;13.790;2023-05-09T00:10:34;101962.59;;;10.56;64.42
17781;BME280;8498;52.516;13.790;2023-05-09T00:15:56;101975.72;;;10.41;64.77
17781;BME280;8498;52.516;13.790;2023-05-09T00:21:19;101970.91;;;10.30;64.83
17781;BME280;8498;52.516;13.790;2023-05-09T00:26:41;101970.97;;;10.28;65.22
17781;BME280;8498;52.516;13.790;2023-05-09T00:32:04;101976.59;;;10.22;65.54
17781;BME280;8498;52.516;13.790;2023-05-09T00:37:28;101965.03;;;10.23;65.03
17781;BME280;8498;52.516;13.790;2023-05-09T00:42:52;101968.88;;;10.16;65.42
17781;BME280;8498;52.516;13.790;2023-05-09T00:48:14;101967.22;;;10.14;65.80
17781;BME280;8498;52.516;13.790;2023-05-09T00:53:38;101958.81;;;10.04;65.67
17781;BME280;8498;52.516;13.790;2023-05-09T00:59:01;101960.97;;;9.96;65.95
17781;BME280;8498;52.516;13.790;2023-05-09T01:04:24;101956.84;;;9.89;66.48
17781;BME280;8498;52.516;13.790;2023-05-09T01:15:32;101943.97;;;9.80;66.91
17781;BME280;8498;52.516;13.790;2023-05-09T01:21:04;101940.53;;;9.78;66.49
17781;BME280;8498;52.516;13.790;2023-05-09T01:32:25;101933.66;;;9.74;66.23
17781;BME280;8498;52.516;13.790;2023-05-09T01:37:49;101936.56;;;9.68;66.35
17781;BME280;8498;52.516;13.790;2023-05-09T01:43:13;101928.88;;;9.62;66.30
17781;BME280;8498;52.516;13.790;2023-05-09T01:48:38;101937.03;;;9.57;66.65
17781;BME280;8498;52.516;13.790;2023-05-09T01:54:02;101932.00;;;9.51;66.36
17781;BME280;8498;52.516;13.790;2023-05-09T01:59:27;101924.50;;;9.40;67.17
17781;BME280;8498;52.516;13.790;2023-05-09T02:04:51;101921.13;;;9.37;67.09
17781;BME280;8498;52.516;13.790;2023-05-09T02:10:16;101924.91;;;9.31;66.83
17781;BME280;8498;52.516;13.790;2023-05-09T02:15:42;101915.34;;;9.27;67.50
17781;BME280;8498;52.516;13.790;2023-05-09T02:21:05;101921.75;;;9.23;67.13
17781;BME280;8498;52.516;13.790;2023-05-09T02:26:27;101921.97;;;9.17;67.35
17781;BME280;8498;52.516;13.790;2023-05-09T02:31:50;101921.81;;;9.22;67.43
17781;BME280;8498;52.516;13.790;2023-05-09T02:37:14;101921.97;;;9.17;67.57
17781;BME280;8498;52.516;13.790;2023-05-09T02:42:36;101921.63;;;9.04;67.49
17781;BME280;8498;52.516;13.790;2023-05-09T02:47:59;101927.13;;;9.00;67.92
17781;BME280;8498;52.516;13.790;2023-05-09T02:53:21;101927.53;;;8.91;68.04
17781;BME280;8498;52.516;13.790;2023-05-09T02:58:44;101921.81;;;8.79;68.92
17781;BME280;8498;52.516;13.790;2023-05-09T03:04:12;101923.75;;;8.74;68.71
17781;BME280;8498;52.516;13.790;2023-05-09T03:09:34;101924.13;;;8.65;69.17
17781;BME280;8498;52.516;13.790;2023-05-09T03:14:57;101924.03;;;8.68;69.34
17781;BME280;8498;52.516;13.790;2023-05-09T03:20:19;101912.78;;;8.62;69.59
17781;BME280;8498;52.516;13.790;2023-05-09T03:25:42;101915.81;;;8.53;70.39
17781;BME280;8498;52.516;13.790;2023-05-09T03:31:04;101916.72;;;8.52;70.21
17781;BME280;8498;52.516;13.790;2023-05-09T03:36:28;101910.72;;;8.48;70.57
17781;BME280;8498;52.516;13.790;2023-05-09T03:41:50;101915.63;;;8.35;70.69
17781;BME280;8498;52.516;13.790;2023-05-09T03:47:13;101910.38;;;8.34;70.99
17781;BME280;8498;52.516;13.790;2023-05-09T03:52:35;101913.13;;;8.31;71.20
17781;BME280;8498;52.516;13.790;2023-05-09T03:57:59;101912.94;;;8.37;70.63
17781;BME280;8498;52.516;13.790;2023-05-09T04:03:23;101910.94;;;8.42;70.85
17781;BME280;8498;52.516;13.790;2023-05-09T04:08:48;101915.63;;;8.57;70.30
17781;BME280;8498;52.516;13.790;2023-05-09T04:14:11;101906.66;;;8.61;70.35
17781;BME280;8498;52.516;13.790;2023-05-09T04:19:33;101907.16;;;8.71;70.03
17781;BME280;8498;52.516;13.790;2023-05-09T04:24:55;101910.34;;;8.79;69.42
17781;BME280;8498;52.516;13.790;2023-05-09T04:30:18;101914.50;;;8.84;69.56
17781;BME280;8498;52.516;13.790;2023-05-09T04:35:41;101911.56;;;8.92;69.11
17781;BME280;8498;52.516;13.790;2023-05-09T04:41:04;101904.09;;;9.02;68.58
17781;BME280;8498;52.516;13.790;2023-05-09T04:46:26;101900.41;;;9.04;68.60
17781;BME280;8498;52.516;13.790;2023-05-09T04:51:52;101902.50;;;9.18;68.34
17781;BME280;8498;52.516;13.790;2023-05-09T04:57:14;101901.97;;;9.30;68.55
17781;BME280;8498;52.516;13.790;2023-05-09T05:02:45;101891.81;;;9.40;67.99
17781;BME280;8498;52.516;13.790;2023-05-09T05:08:08;101901.97;;;9.50;67.61
17781;BME280;8498;52.516;13.790;2023-05-09T05:13:33;101893.03;;;9.72;67.10
17781;BME280;8498;52.516;13.790;2023-05-09T05:18:56;101880.41;;;9.77;66.74
17781;BME280;8498;52.516;13.790;2023-05-09T05:24:19;101883.81;;;9.99;66.07
17781;BME280;8498;52.516;13.790;2023-05-09T05:29:42;101880.03;;;10.23;67.65
17781;BME280;8498;52.516;13.790;2023-05-09T05:35:05;101875.44;;;10.46;64.90
17781;BME280;8498;52.516;13.790;2023-05-09T05:40:30;101873.97;;;10.57;64.04
17781;BME280;8498;52.516;13.790;2023-05-09T05:45:56;101881.25;;;10.71;63.33
17781;BME280;8498;52.516;13.790;2023-05-09T05:51:20;101870.00;;;10.83;62.32
17781;BME280;8498;52.516;13.790;2023-05-09T05:56:42;101866.25;;;11.22;68.25
17781;BME280;8498;52.516;13.790;2023-05-09T06:02:05;101869.56;;;11.60;60.06
17781;BME280;8498;52.516;13.790;2023-05-09T06:07:28;101856.78;;;11.66;59.23
17781;BME280;8498;52.516;13.790;2023-05-09T06:12:50;101848.00;;;11.64;59.29
17781;BME280;8498;52.516;13.790;2023-05-09T06:18:13;101850.44;;;11.69;57.04
17781;BME280;8498;52.516;13.790;2023-05-09T06:23:36;101842.31;;;11.88;57.83
17781;BME280;8498;52.516;13.790;2023-05-09T06:29:05;101845.69;;;12.07;55.93
17781;BME280;8498;52.516;13.790;2023-05-09T06:34:28;101845.00;;;12.19;56.02
17781;BME280;8498;52.516;13.790;2023-05-09T06:39:51;101821.09;;;12.33;53.77
17781;BME280;8498;52.516;13.790;2023-05-09T06:45:13;101821.94;;;12.49;53.22
17781;BME280;8498;52.516;13.790;2023-05-09T06:50:38;101806.66;;;12.67;52.67
17781;BME280;8498;52.516;13.790;2023-05-09T06:56:01;101802.06;;;12.85;52.78
17781;BME280;8498;52.516;13.790;2023-05-09T07:01:23;101793.50;;;13.08;49.91
17781;BME280;8498;52.516;13.790;2023-05-09T07:06:46;101788.44;;;13.34;49.52
17781;BME280;8498;52.516;13.790;2023-05-09T07:12:08;101764.47;;;13.60;49.30
17781;BME280;8498;52.516;13.790;2023-05-09T07:17:30;101771.41;;;13.77;46.33
17781;BME280;8498;52.516;13.790;2023-05-09T07:22:53;101761.44;;;13.93;47.10
17781;BME280;8498;52.516;13.790;2023-05-09T07:28:15;101739.34;;;14.18;47.13
17781;BME280;8498;52.516;13.790;2023-05-09T07:33:38;101744.31;;;14.37;45.17
17781;BME280;8498;52.516;13.790;2023-05-09T07:39:01;101742.84;;;14.46;45.05
17781;BME280;8498;52.516;13.790;2023-05-09T07:44:23;101724.50;;;14.66;45.07
17781;BME280;8498;52.516;13.790;2023-05-09T07:49:45;101717.25;;;14.81;43.79
17781;BME280;8498;52.516;13.790;2023-05-09T07:55:09;101713.63;;;14.95;43.92
17781;BME280;8498;52.516;13.790;2023-05-09T08:00:33;101717.00;;;15.10;41.95
17781;BME280;8498;52.516;13.790;2023-05-09T08:05:56;101692.94;;;15.10;42.93
17781;BME280;8498;52.516;13.790;2023-05-09T08:11:18;101687.66;;;15.33;42.68
17781;BME280;8498;52.516;13.790;2023-05-09T08:16:41;101692.97;;;15.59;42.36
17781;BME280;8498;52.516;13.790;2023-05-09T08:22:04;101674.56;;;15.78;42.71
17781;BME280;8498;52.516;13.790;2023-05-09T08:27:27;101663.94;;;16.00;41.50
17781;BME280;8498;52.516;13.790;2023-05-09T08:32:50;101649.84;;;16.09;41.43
17781;BME280;8498;52.516;13.790;2023-05-09T08:38:12;101647.38;;;16.41;41.42
17781;BME280;8498;52.516;13.790;2023-05-09T08:43:35;101629.31;;;16.67;40.65
17781;BME280;8498;52.516;13.790;2023-05-09T08:48:59;101633.94;;;16.99;40.40
17781;BME280;8498;52.516;13.790;2023-05-09T08:54:22;101625.38;;;17.27;39.42
17781;BME280;8498;52.516;13.790;2023-05-09T08:59:46;101613.81;;;17.58;38.70
17781;BME280;8498;52.516;13.790;2023-05-09T09:05:10;101618.94;;;17.61;38.89
17781;BME280;8498;52.516;13.790;2023-05-09T09:10:50;101613.84;;;17.90;36.71
17781;BME280;8498;52.516;13.790;2023-05-09T09:16:21;101611.38;;;18.19;36.25
17781;BME280;8498;52.516;13.790;2023-05-09T09:21:45;101606.84;;;18.61;36.92
17781;BME280;8498;52.516;13.790;2023-05-09T09:27:12;101594.81;;;18.86;36.05
17781;BME280;8498;52.516;13.790;2023-05-09T09:32:35;101582.63;;;18.92;36.91
17781;BME280;8498;52.516;13.790;2023-05-09T09:37:58;101590.41;;;19.35;37.46
17781;BME280;8498;52.516;13.790;2023-05-09T09:43:30;101577.91;;;19.34;35.79
17781;BME280;8498;52.516;13.790;2023-05-09T09:48:53;101573.44;;;20.02;35.59
17781;BME280;8498;52.516;13.790;2023-05-09T09:54:18;101578.00;;;19.72;33.72
17781;BME280;8498;52.516;13.790;2023-05-09T09:59:57;101560.94;;;20.01;34.34
17781;BME280;8498;52.516;13.790;2023-05-09T10:05:29;101558.63;;;20.72;33.53
17781;BME280;8498;52.516;13.790;2023-05-09T10:10:52;101549.63;;;20.81;32.71
17781;BME280;8498;52.516;13.790;2023-05-09T10:16:14;101549.44;;;20.65;34.07
17781;BME280;8498;52.516;13.790;2023-05-09T10:21:38;101532.91;;;20.68;32.52
17781;BME280;8498;52.516;13.790;2023-05-09T10:27:03;101530.22;;;21.22;32.16
17781;BME280;8498;52.516;13.790;2023-05-09T10:32:32;101521.66;;;21.00;31.62
17781;BME280;8498;52.516;13.790;2023-05-09T10:38:00;101511.31;;;20.95;31.16
17781;BME280;8498;52.516;13.790;2023-05-09T10:43:23;101520.81;;;20.99;31.94
17781;BME280;8498;52.516;13.790;2023-05-09T10:48:46;101504.44;;;21.64;31.41
17781;BME280;8498;52.516;13.790;2023-05-09T10:54:13;101496.41;;;21.54;30.77
17781;BME280;8498;52.516;13.790;2023-05-09T10:59:41;101499.00;;;21.99;31.41
17781;BME280;8498;52.516;13.790;2023-05-09T11:05:17;101492.00;;;21.96;31.41
17781;BME280;8498;52.516;13.790;2023-05-09T11:10:41;101477.31;;;22.25;30.52
17781;BME280;8498;52.516;13.790;2023-05-09T11:16:07;101466.47;;;22.51;32.07
17781;BME280;8498;52.516;13.790;2023-05-09T11:21:29;101455.63;;;22.93;30.43
17781;BME280;8498;52.516;13.790;2023-05-09T11:26:52;101445.28;;;21.86;30.96
17781;BME280;8498;52.516;13.790;2023-05-09T11:32:15;101435.72;;;22.26;30.85
17781;BME280;8498;52.516;13.790;2023-05-09T11:38:02;101421.41;;;22.84;30.08
17781;BME280;8498;52.516;13.790;2023-05-09T11:43:25;101414.94;;;22.85;30.78
17781;BME280;8498;52.516;13.790;2023-05-09T11:48:48;101406.34;;;23.05;30.34
17781;BME280;8498;52.516;13.790;2023-05-09T11:54:10;101397.72;;;23.42;28.93
17781;BME280;8498;52.516;13.790;2023-05-09T11:59:35;101388.19;;;23.87;28.72
17781;BME280;8498;52.516;13.790;2023-05-09T12:05:11;101380.38;;;23.84;30.08
17781;BME280;8498;52.516;13.790;2023-05-09T12:10:38;101365.91;;;24.08;28.71
17781;BME280;8498;52.516;13.790;2023-05-09T12:16:01;101364.13;;;23.68;29.85
17781;BME280;8498;52.516;13.790;2023-05-09T12:21:24;101355.69;;;23.63;29.97
17781;BME280;8498;52.516;13.790;2023-05-09T12:26:47;101349.38;;;23.70;28.82
17781;BME280;8498;52.516;13.790;2023-05-09T12:32:10;101343.16;;;23.46;29.06
17781;BME280;8498;52.516;13.790;2023-05-09T12:37:33;101331.78;;;23.66;28.69
17781;BME280;8498;52.516;13.790;2023-05-09T12:42:56;101326.75;;;22.82;28.79
17781;BME280;8498;52.516;13.790;2023-05-09T12:48:22;101314.13;;;22.65;29.63
17781;BME280;8498;52.516;13.790;2023-05-09T12:53:47;101308.91;;;23.28;30.17
17781;BME280;8498;52.516;13.790;2023-05-09T12:59:10;101300.81;;;23.92;28.56
17781;BME280;8498;52.516;13.790;2023-05-09T13:04:35;101288.03;;;24.08;28.80
17781;BME280;8498;52.516;13.790;2023-05-09T13:09:58;101270.06;;;23.99;29.31
17781;BME280;8498;52.516;13.790;2023-05-09T13:15:22;101260.75;;;23.94;27.88
17781;BME280;8498;52.516;13.790;2023-05-09T13:20:45;101267.09;;;23.86;29.22
17781;BME280;8498;52.516;13.790;2023-05-09T13:26:09;101250.22;;;24.30;29.44
17781;BME280;8498;52.516;13.790;2023-05-09T13:31:31;101242.75;;;24.55;28.99
17781;BME280;8498;52.516;13.790;2023-05-09T13:36:54;101229.94;;;24.63;27.38
17781;BME280;8498;52.516;13.790;2023-05-09T13:42:16;101217.47;;;24.92;27.22
17781;BME280;8498;52.516;13.790;2023-05-09T13:47:40;101219.13;;;24.78;27.45
17781;BME280;8498;52.516;13.790;2023-05-09T13:53:02;101212.91;;;25.07;26.53
17781;BME280;8498;52.516;13.790;2023-05-09T13:58:24;101204.19;;;24.97;25.89
17781;BME280;8498;52.516;13.790;2023-05-09T14:03:47;101190.25;;;25.29;27.39
17781;BME280;8498;52.516;13.790;2023-05-09T14:09:10;101194.47;;;25.17;26.37
17781;BME280;8498;52.516;13.790;2023-05-09T14:14:34;101180.97;;;25.09;26.61
17781;BME280;8498;52.516;13.790;2023-05-09T14:19:56;101172.31;;;25.35;25.64
17781;BME280;8498;52.516;13.790;2023-05-09T14:25:18;101163.31;;;25.34;26.45
17781;BME280;8498;52.516;13.790;2023-05-09T14:30:41;101153.78;;;25.09;25.62
17781;BME280;8498;52.516;13.790;2023-05-09T14:36:04;101131.78;;;24.66;26.20
17781;BME280;8498;52.516;13.790;2023-05-09T14:41:27;101129.16;;;24.58;26.64
17781;BME280;8498;52.516;13.790;2023-05-09T14:46:49;101133.59;;;25.33;26.92
17781;BME280;8498;52.516;13.790;2023-05-09T14:52:12;101118.75;;;24.76;26.72
17781;BME280;8498;52.516;13.790;2023-05-09T14:57:35;101095.66;;;24.43;26.72
17781;BME280;8498;52.516;13.790;2023-05-09T15:02:57;101098.06;;;24.23;27.65
17781;BME280;8498;52.516;13.790;2023-05-09T15:08:19;101104.59;;;24.66;27.04
17781;BME280;8498;52.516;13.790;2023-05-09T15:13:42;101095.53;;;24.74;26.38
17781;BME280;8498;52.516;13.790;2023-05-09T15:19:04;101084.53;;;24.15;26.48
17781;BME280;8498;52.516;13.790;2023-05-09T15:24:27;101081.72;;;24.46;26.68
17781;BME280;8498;52.516;13.790;2023-05-09T15:29:49;101071.72;;;24.76;26.73
17781;BME280;8498;52.516;13.790;2023-05-09T15:35:11;101070.31;;;24.65;25.77
17781;BME280;8498;52.516;13.790;2023-05-09T15:40:35;101056.81;;;24.57;26.18
17781;BME280;8498;52.516;13.790;2023-05-09T15:45:57;101043.97;;;24.36;26.62
17781;BME280;8498;52.516;13.790;2023-05-09T15:51:20;101040.59;;;24.11;26.17
17781;BME280;8498;52.516;13.790;2023-05-09T15:56:43;101041.44;;;23.97;25.91
17781;BME280;8498;52.516;13.790;2023-05-09T16:02:05;101040.88;;;23.79;26.18
17781;BME280;8498;52.516;13.790;2023-05-09T16:07:29;101029.94;;;23.72;27.14
17781;BME280;8498;52.516;13.790;2023-05-09T16:12:52;101034.25;;;23.59;26.99
17781;BME280;8498;52.516;13.790;2023-05-09T16:18:15;101015.78;;;23.31;28.04
17781;BME280;8498;52.516;13.790;2023-05-09T16:23:37;101018.59;;;23.15;28.68
17781;BME280;8498;52.516;13.790;2023-05-09T16:29:02;101021.00;;;22.55;29.22
17781;BME280;8498;52.516;13.790;2023-05-09T16:34:25;100989.50;;;21.99;29.70
17781;BME280;8498;52.516;13.790;2023-05-09T16:39:47;101016.19;;;21.69;30.22
17781;BME280;8498;52.516;13.790;2023-05-09T16:45:10;101009.84;;;21.20;30.35
17781;BME280;8498;52.516;13.790;2023-05-09T16:50:33;101012.22;;;20.81;31.02
17781;BME280;8498;52.516;13.790;2023-05-09T16:55:55;101002.16;;;20.57;31.27
17781;BME280;8498;52.516;13.790;2023-05-09T17:01:18;101003.47;;;20.45;31.73
17781;BME280;8498;52.516;13.790;2023-05-09T17:06:40;101002.47;;;20.28;32.58
17781;BME280;8498;52.516;13.790;2023-05-09T17:12:03;100997.19;;;20.19;33.12
17781;BME280;8498;52.516;13.790;2023-05-09T17:17:26;100992.94;;;20.16;33.74
17781;BME280;8498;52.516;13.790;2023-05-09T17:22:48;100999.41;;;19.97;34.02
17781;BME280;8498;52.516;13.790;2023-05-09T17:28:11;100978.88;;;19.78;34.56
17781;BME280;8498;52.516;13.790;2023-05-09T17:33:34;100982.34;;;19.53;34.50
17781;BME280;8498;52.516;13.790;2023-05-09T17:38:56;100982.88;;;19.39;35.03
17781;BME280;8498;52.516;13.790;2023-05-09T17:44:19;100973.34;;;19.27;35.26
17781;BME280;8498;52.516;13.790;2023-05-09T17:49:43;100980.94;;;19.14;35.97
17781;BME280;8498;52.516;13.790;2023-05-09T17:55:05;100983.13;;;19.00;36.15
17781;BME280;8498;52.516;13.790;2023-05-09T18:00:29;100981.88;;;18.77;36.86
17781;BME280;8498;52.516;13.790;2023-05-09T18:05:52;100976.56;;;18.67;37.23
17781;BME280;8498;52.516;13.790;2023-05-09T18:11:14;100981.16;;;18.48;37.52
17781;BME280;8498;52.516;13.790;2023-05-09T18:16:37;100968.44;;;18.30;37.37
17781;BME280;8498;52.516;13.790;2023-05-09T18:22:00;100962.53;;;18.17;37.72
17781;BME280;8498;52.516;13.790;2023-05-09T18:27:23;100964.59;;;18.06;38.08
17781;BME280;8498;52.516;13.790;2023-05-09T18:32:46;100962.91;;;17.95;38.08
17781;BME280;8498;52.516;13.790;2023-05-09T18:38:09;100960.38;;;17.84;38.34
17781;BME280;8498;52.516;13.790;2023-05-09T18:43:31;100962.38;;;17.72;38.61
17781;BME280;8498;52.516;13.790;2023-05-09T18:48:54;100954.72;;;17.48;39.36
17781;BME280;8498;52.516;13.790;2023-05-09T18:54:16;100970.28;;;17.35;39.11
17781;BME280;8498;52.516;13.790;2023-05-09T18:59:39;100971.13;;;17.26;40.09
17781;BME280;8498;52.516;13.790;2023-05-09T19:05:02;100970.81;;;17.00;40.44
17781;BME280;8498;52.516;13.790;2023-05-09T19:10:28;100970.78;;;16.81;41.27
17781;BME280;8498;52.516;13.790;2023-05-09T19:15:51;100972.44;;;16.72;40.79
17781;BME280;8498;52.516;13.790;2023-05-09T19:21:14;100968.59;;;16.65;41.21
17781;BME280;8498;52.516;13.790;2023-05-09T19:26:37;100954.00;;;16.48;41.48
17781;BME280;8498;52.516;13.790;2023-05-09T19:32:00;100964.25;;;16.43;41.28
17781;BME280;8498;52.516;13.790;2023-05-09T19:37:22;100955.91;;;16.37;41.75
17781;BME280;8498;52.516;13.790;2023-05-09T19:42:47;100947.41;;;16.32;41.61
17781;BME280;8498;52.516;13.790;2023-05-09T19:48:09;100947.34;;;16.12;42.49
17781;BME280;8498;52.516;13.790;2023-05-09T19:53:37;100938.94;;;15.96;42.94
17781;BME280;8498;52.516;13.790;2023-05-09T19:58:59;100947.47;;;15.90;42.47
17781;BME280;8498;52.516;13.790;2023-05-09T20:04:22;100941.69;;;15.85;42.82
17781;BME280;8498;52.516;13.790;2023-05-09T20:09:45;100944.25;;;15.87;42.39
17781;BME280;8498;52.516;13.790;2023-05-09T20:15:07;100940.13;;;15.83;42.41
17781;BME280;8498;52.516;13.790;2023-05-09T20:20:30;100925.44;;;15.77;42.81
17781;BME280;8498;52.516;13.790;2023-05-09T20:25:54;100932.75;;;15.75;42.45
17781;BME280;8498;52.516;13.790;2023-05-09T20:31:16;100923.53;;;15.68;42.76
17781;BME280;8498;52.516;13.790;2023-05-09T20:36:38;100919.69;;;15.61;43.55
17781;BME280;8498;52.516;13.790;2023-05-09T20:42:00;100914.22;;;15.51;43.57
17781;BME280;8498;52.516;13.790;2023-05-09T20:47:23;100907.56;;;15.46;43.96
17781;BME280;8498;52.516;13.790;2023-05-09T20:52:46;100903.38;;;15.32;44.71
17781;BME280;8498;52.516;13.790;2023-05-09T20:58:08;100895.41;;;15.21;45.05
17781;BME280;8498;52.516;13.790;2023-05-09T21:03:31;100900.03;;;15.19;45.25
17781;BME280;8498;52.516;13.790;2023-05-09T21:08:53;100896.53;;;15.07;46.24
17781;BME280;8498;52.516;13.790;2023-05-09T21:14:16;100881.38;;;14.96;46.75
17781;BME280;8498;52.516;13.790;2023-05-09T21:19:38;100876.31;;;14.93;46.81
17781;BME280;8498;52.516;13.790;2023-05-09T21:25:01;100875.84;;;14.88;47.10
17781;BME280;8498;52.516;13.790;2023-05-09T21:30:23;100875.22;;;14.85;47.16
17781;BME280;8498;52.516;13.790;2023-05-09T21:35:45;100867.97;;;14.76;47.72
17781;BME280;8498;52.516;13.790;2023-05-09T21:41:08;100863.75;;;14.73;47.83
17781;BME280;8498;52.516;13.790;2023-05-09T21:46:31;100865.09;;;14.67;48.37
17781;BME280;8498;52.516;13.790;2023-05-09T21:51:56;100863.03;;;14.60;48.27
17781;BME280;8498;52.516;13.790;2023-05-09T21:57:18;100854.81;;;14.52;48.64
17781;BME280;8498;52.516;13.790;2023-05-09T22:02:41;100854.56;;;14.44;49.07
17781;BME280;8498;52.516;13.790;2023-05-09T22:08:07;100848.53;;;14.42;49.16
17781;BME280;8498;52.516;13.790;2023-05-09T22:13:29;100853.97;;;14.29;49.44
17781;BME280;8498;52.516;13.790;2023-05-09T22:18:52;100847.66;;;14.19;49.86
17781;BME280;8498;52.516;13.790;2023-05-09T22:24:14;100851.53;;;14.15;50.05
17781;BME280;8498;52.516;13.790;2023-05-09T22:29:36;100850.34;;;14.08;50.61
17781;BME280;8498;52.516;13.790;2023-05-09T22:34:59;100846.09;;;14.05;51.13
17781;BME280;8498;52.516;13.790;2023-05-09T22:40:21;100846.72;;;13.98;51.23
17781;BME280;8498;52.516;13.790;2023-05-09T22:45:43;100837.50;;;13.90;51.71
17781;BME280;8498;52.516;13.790;2023-05-09T22:51:06;100836.03;;;13.86;51.87
17781;BME280;8498;52.516;13.790;2023-05-09T22:56:29;100832.84;;;13.81;52.53
17781;BME280;8498;52.516;13.790;2023-05-09T23:01:51;100821.47;;;13.68;53.21
17781;BME280;8498;52.516;13.790;2023-05-09T23:07:14;100817.34;;;13.64;53.32
17781;BME280;8498;52.516;13.790;2023-05-09T23:12:37;100813.19;;;13.60;53.11
17781;BME280;8498;52.516;13.790;2023-05-09T23:17:59;100815.63;;;13.52;53.78
17781;BME280;8498;52.516;13.790;2023-05-09T23:23:21;100815.38;;;13.44;54.72
17781;BME280;8498;52.516;13.790;2023-05-09T23:28:44;100809.56;;;13.39;54.83
17781;BME280;8498;52.516;13.790;2023-05-09T23:34:06;100812.34;;;13.37;54.93
17781;BME280;8498;52.516;13.790;2023-05-09T23:39:29;100810.03;;;13.33;55.82
17781;BME280;8498;52.516;13.790;2023-05-09T23:44:52;100808.56;;;13.29;55.59
17781;BME280;8498;52.516;13.790;2023-05-09T23:50:15;100819.06;;;13.19;56.17
17781;BME280;8498;52.516;13.790;2023-05-09T23:55:38;100806.53;;;13.08;57.04
